Time;durP1;ratioP1;P1;durP2;ratioP2;P2;SDS_P1;SDS_P2;PMS_P1;PMS_P2;Temp;Humidity;BMP_temperature;BMP_pressure;BME280_temperature;BME280_humidity;BME280_pressure;Samples;Min_cycle;Max_cycle;Signal;HPM_P1;HPM_P2
2022/04/15 00:00:12;;;;;;;0.43;0.40;;;12.40;99.90;;;;;;5001186;28;21023;-80
2022/04/15 00:02:39;;;;;;;0.40;0.40;;;12.40;99.90;;;;;;5000894;28;20463;-81
2022/04/15 00:05:29;;;;;;;0.30;0.20;;;12.30;99.90;;;;;;5002960;28;20467;-84
2022/04/15 00:07:55;;;;;;;0.40;0.30;;;12.30;99.90;;;;;;5006021;28;20437;-80
2022/04/15 00:10:25;;;;;;;0.60;0.60;;;12.40;99.90;;;;;;5007360;28;20461;-80
2022/04/15 00:12:54;;;;;;;0.40;0.40;;;12.30;99.90;;;;;;5002411;28;20442;-80
2022/04/15 00:15:22;;;;;;;0.40;0.40;;;12.20;99.90;;;;;;5004905;28;20466;-82
2022/04/15 00:17:49;;;;;;;0.40;0.30;;;12.20;99.90;;;;;;5003706;28;20449;-81
2022/04/15 00:20:16;;;;;;;0.40;0.33;;;12.20;99.90;;;;;;5005630;28;20984;-80
2022/04/15 00:22:43;;;;;;;0.47;0.40;;;12.20;99.90;;;;;;5005665;28;20572;-81
2022/04/15 00:25:10;;;;;;;0.53;0.50;;;12.20;99.90;;;;;;5005291;28;20481;-81
2022/04/15 00:27:40;;;;;;;2.83;2.73;;;12.30;99.90;;;;;;5003531;28;20519;-83
2022/04/15 00:30:09;;;;;;;0.40;0.33;;;12.30;99.90;;;;;;5003567;28;20518;-81
2022/04/15 00:32:37;;;;;;;0.70;0.70;;;12.40;99.90;;;;;;5002068;28;20468;-83
2022/04/15 00:35:04;;;;;;;0.57;0.57;;;12.40;99.90;;;;;;5003561;28;20976;-81
2022/04/15 00:37:32;;;;;;;8.33;0.67;;;12.50;99.90;;;;;;5005832;28;20469;-81
2022/04/15 00:40:01;;;;;;;0.60;0.50;;;12.60;99.90;;;;;;5002148;28;21009;-80
2022/04/15 00:42:28;;;;;;;0.43;0.43;;;12.70;99.90;;;;;;5001720;28;20651;-80
2022/04/15 00:44:57;;;;;;;0.63;0.63;;;12.70;99.90;;;;;;5004180;28;20463;-81
2022/04/15 00:47:37;;;;;;;1.63;1.53;;;12.70;99.90;;;;;;5005002;28;21399;-80
2022/04/15 00:50:06;;;;;;;0.50;0.40;;;12.80;99.90;;;;;;5000530;28;22433;-80
2022/04/15 00:52:39;;;;;;;1.30;0.33;;;12.80;99.90;;;;;;5004277;28;20819;-82
2022/04/15 00:55:07;;;;;;;2.77;1.80;;;12.70;99.90;;;;;;5007098;28;20462;-80
2022/04/15 00:57:36;;;;;;;0.60;0.60;;;12.70;99.90;;;;;;5006419;28;20454;-80
2022/04/15 01:00:07;;;;;;;1.57;1.47;;;12.80;99.90;;;;;;5014606;28;20536;-80
2022/04/15 01:02:35;;;;;;;1.07;0.50;;;12.90;99.90;;;;;;5028929;28;20466;-80
2022/04/15 01:05:04;;;;;;;0.60;0.50;;;12.80;99.90;;;;;;5025454;28;20454;-81
2022/04/15 01:07:35;;;;;;;0.30;0.30;;;12.80;99.90;;;;;;4997891;28;20466;-81
2022/04/15 01:10:03;;;;;;;2.87;1.53;;;12.80;99.90;;;;;;4999524;28;20464;-80
2022/04/15 01:12:32;;;;;;;0.80;0.80;;;12.80;99.90;;;;;;5005426;28;20459;-83
2022/04/15 01:15:02;;;;;;;0.60;0.60;;;12.70;99.90;;;;;;5007620;28;20513;-80
2022/04/15 01:17:30;;;;;;;0.40;0.40;;;12.60;99.90;;;;;;5004241;28;20523;-81
2022/04/15 01:19:57;;;;;;;0.93;0.70;;;12.50;99.90;;;;;;5009371;28;21888;-82
2022/04/15 01:22:25;;;;;;;0.60;0.40;;;12.40;99.90;;;;;;5008892;28;20504;-83
2022/04/15 01:24:53;;;;;;;0.40;0.40;;;12.30;99.90;;;;;;5009152;28;20461;-80
2022/04/15 01:27:26;;;;;;;0.40;0.40;;;12.30;99.90;;;;;;5005037;28;20470;-80
2022/04/15 01:29:53;;;;;;;0.40;0.40;;;12.30;99.90;;;;;;5003610;28;20455;-82
2022/04/15 01:32:21;;;;;;;1.07;0.77;;;12.40;99.90;;;;;;5004947;28;20458;-82
2022/04/15 01:34:48;;;;;;;0.40;0.30;;;12.40;99.90;;;;;;5007188;28;20509;-81
2022/04/15 01:37:17;;;;;;;0.60;0.60;;;12.30;99.90;;;;;;5005890;28;20472;-82
2022/04/15 01:39:45;;;;;;;2.00;0.77;;;12.20;99.90;;;;;;5006675;28;20889;-80
2022/04/15 01:42:13;;;;;;;1.03;1.03;;;12.10;99.90;;;;;;5003123;28;21003;-81
2022/04/15 01:44:41;;;;;;;0.53;0.53;;;12.10;99.90;;;;;;5002577;28;20459;-81
2022/04/15 01:47:09;;;;;;;2.50;0.60;;;12.00;99.90;;;;;;5006260;28;20470;-81
2022/04/15 01:49:36;;;;;;;2.97;0.77;;;11.90;99.90;;;;;;5006566;28;20534;-82
2022/04/15 01:52:03;;;;;;;0.40;0.30;;;11.80;99.90;;;;;;5007350;28;20493;-81
2022/04/15 01:54:31;;;;;;;1.63;0.90;;;11.80;99.90;;;;;;5008282;28;20499;-81
2022/04/15 01:56:58;;;;;;;0.40;0.33;;;11.80;99.90;;;;;;5008143;28;20967;-79
2022/04/15 01:59:26;;;;;;;0.50;0.50;;;11.80;99.90;;;;;;5001596;28;20483;-81
2022/04/15 02:01:54;;;;;;;0.50;0.50;;;11.80;99.90;;;;;;5009530;28;20460;-81
2022/04/15 02:04:21;;;;;;;0.40;0.40;;;11.70;99.90;;;;;;5006190;28;20941;-84
2022/04/15 02:06:48;;;;;;;0.60;0.30;;;11.70;99.90;;;;;;5005420;28;20466;-82
2022/04/15 02:09:16;;;;;;;0.30;0.20;;;11.60;99.90;;;;;;5007510;28;21008;-82
2022/04/15 02:11:43;;;;;;;0.77;0.77;;;11.70;99.90;;;;;;5005626;28;20461;-81
2022/04/15 02:14:10;;;;;;;0.30;0.20;;;11.70;99.90;;;;;;5003708;28;20477;-82
2022/04/15 02:16:39;;;;;;;0.63;0.40;;;11.60;99.90;;;;;;5007333;28;20535;-82
2022/04/15 02:19:06;;;;;;;0.77;0.77;;;11.60;99.90;;;;;;4999587;28;20973;-82
2022/04/15 02:21:33;;;;;;;0.40;0.40;;;11.80;99.90;;;;;;5006602;28;20952;-81
2022/04/15 02:24:00;;;;;;;0.80;0.80;;;11.80;99.90;;;;;;5004775;28;20965;-82
2022/04/15 02:26:28;;;;;;;0.30;0.20;;;11.90;99.90;;;;;;5006415;28;21180;-82
2022/04/15 02:28:55;;;;;;;0.40;0.40;;;11.90;99.90;;;;;;5008297;28;20531;-83
2022/04/15 02:31:22;;;;;;;0.30;0.20;;;11.90;99.90;;;;;;5004249;28;20523;-80
2022/04/15 02:33:51;;;;;;;0.57;0.43;;;11.90;99.90;;;;;;5006604;28;20463;-84
2022/04/15 02:36:18;;;;;;;1.33;0.77;;;11.80;99.90;;;;;;5006261;28;20539;-84
2022/04/15 02:38:45;;;;;;;1.13;1.13;;;11.90;99.90;;;;;;5006637;28;20543;-82
2022/04/15 02:41:13;;;;;;;1.77;1.60;;;11.80;99.90;;;;;;5009534;28;20517;-82
2022/04/15 02:43:40;;;;;;;1.80;1.20;;;11.90;99.90;;;;;;5006913;28;20503;-83
2022/04/15 02:46:10;;;;;;;0.90;0.90;;;11.90;99.90;;;;;;5005582;28;20510;-82
2022/04/15 02:48:37;;;;;;;0.33;0.23;;;12.00;99.90;;;;;;5005244;28;21068;-82
2022/04/15 02:51:06;;;;;;;1.57;1.47;;;12.10;99.90;;;;;;5006944;28;20811;-82
2022/04/15 02:53:34;;;;;;;0.60;0.50;;;12.00;99.90;;;;;;5004148;28;20526;-82
2022/04/15 02:56:01;;;;;;;0.87;0.20;;;11.80;99.90;;;;;;5007138;28;20468;-82
2022/04/15 02:58:28;;;;;;;0.30;0.20;;;11.70;99.90;;;;;;5003187;28;21169;-82
2022/04/15 03:00:55;;;;;;;1.60;0.90;;;11.70;99.90;;;;;;5007193;28;20464;-84
2022/04/15 03:03:22;;;;;;;0.77;0.70;;;11.70;99.90;;;;;;5009587;28;21027;-82
2022/04/15 03:05:49;;;;;;;0.40;0.30;;;11.80;99.90;;;;;;5007040;28;20459;-81
2022/04/15 03:08:17;;;;;;;0.87;0.87;;;11.90;99.90;;;;;;5005159;28;20572;-83
2022/04/15 03:10:44;;;;;;;1.97;1.87;;;11.90;99.90;;;;;;5003782;28;20480;-82
2022/04/15 03:13:11;;;;;;;0.47;0.47;;;12.00;99.90;;;;;;4999953;28;20467;-81
2022/04/15 03:15:38;;;;;;;0.90;0.90;;;12.00;99.90;;;;;;5004769;28;20470;-82
2022/04/15 03:18:05;;;;;;;0.70;0.50;;;12.00;99.90;;;;;;5005250;28;20463;-82
2022/04/15 03:20:32;;;;;;;1.43;0.67;;;12.20;99.90;;;;;;5003361;28;20498;-84
2022/04/15 03:22:59;;;;;;;1.53;0.33;;;12.40;99.90;;;;;;5002761;28;20487;-84
2022/04/15 03:25:28;;;;;;;0.73;0.50;;;12.40;99.90;;;;;;5006077;28;21167;-82
2022/04/15 03:27:55;;;;;;;0.50;0.50;;;12.40;99.90;;;;;;5007014;28;20488;-82
2022/04/15 03:30:22;;;;;;;0.90;0.70;;;12.60;99.90;;;;;;5005495;28;20870;-83
2022/04/15 03:32:50;;;;;;;0.60;0.60;;;12.70;99.90;;;;;;5003030;28;20445;-83
2022/04/15 03:35:20;;;;;;;0.37;0.37;;;12.70;99.90;;;;;;5005294;28;20444;-82
2022/04/15 03:37:47;;;;;;;1.43;0.63;;;12.60;99.90;;;;;;5007108;28;20508;-82
2022/04/15 03:40:14;;;;;;;0.80;0.80;;;12.70;99.90;;;;;;5005400;28;20758;-85
2022/04/15 03:42:50;;;;;;;0.40;0.30;;;12.70;99.90;;;;;;5004217;28;20486;-81
2022/04/15 03:45:19;;;;;;;0.30;0.20;;;12.80;99.90;;;;;;5006122;28;20460;-82
2022/04/15 03:47:46;;;;;;;3.23;1.90;;;12.80;99.90;;;;;;5003473;28;20535;-82
2022/04/15 03:50:14;;;;;;;3.77;3.50;;;12.80;99.90;;;;;;5003984;28;21006;-82
2022/04/15 03:52:45;;;;;;;0.40;0.40;;;12.80;99.90;;;;;;5005774;28;20460;-81
2022/04/15 03:55:12;;;;;;;0.70;0.70;;;12.80;99.90;;;;;;5004130;28;20854;-81
2022/04/15 03:57:40;;;;;;;0.70;0.60;;;12.80;99.90;;;;;;5003334;28;20465;-83
2022/04/15 04:00:11;;;;;;;1.13;0.80;;;12.70;99.90;;;;;;5005454;28;20475;-82
2022/04/15 04:02:38;;;;;;;0.30;0.20;;;12.30;99.90;;;;;;5004703;28;21034;-81
2022/04/15 04:05:08;;;;;;;0.37;0.20;;;12.00;99.90;;;;;;5002209;28;20466;-83
2022/04/15 04:07:35;;;;;;;1.93;0.50;;;11.70;99.90;;;;;;5005292;28;20468;-83
2022/04/15 04:10:02;;;;;;;0.40;0.30;;;11.60;99.90;;;;;;5007142;28;20459;-81
2022/04/15 04:12:33;;;;;;;0.40;0.20;;;11.40;99.90;;;;;;5004325;28;20476;-83
2022/04/15 04:15:00;;;;;;;0.40;0.30;;;11.20;99.90;;;;;;5001189;28;20513;-82
2022/04/15 04:17:28;;;;;;;0.50;0.33;;;11.10;99.90;;;;;;5001714;28;20908;-82
2022/04/15 04:19:55;;;;;;;0.57;0.47;;;11.20;99.90;;;;;;4997631;28;20485;-82
2022/04/15 04:22:22;;;;;;;0.30;0.20;;;11.20;99.90;;;;;;5000826;28;20458;-81
2022/04/15 04:24:49;;;;;;;0.77;0.40;;;11.30;99.90;;;;;;5000805;28;20465;-82
2022/04/15 04:27:16;;;;;;;0.87;0.87;;;11.30;99.90;;;;;;5005912;28;20463;-82
2022/04/15 04:29:43;;;;;;;0.40;0.40;;;11.40;99.90;;;;;;5004044;28;20473;-82
2022/04/15 04:32:10;;;;;;;0.50;0.40;;;11.30;99.90;;;;;;4995743;28;20513;-81
2022/04/15 04:34:40;;;;;;;0.67;0.67;;;11.30;99.90;;;;;;4999360;28;20507;-82
2022/04/15 04:37:07;;;;;;;1.83;0.33;;;11.30;99.90;;;;;;4992435;28;20511;-82
2022/04/15 04:39:34;;;;;;;1.33;0.30;;;11.30;99.90;;;;;;4996450;28;21019;-84
2022/04/15 04:42:02;;;;;;;0.40;0.20;;;11.30;99.90;;;;;;4998031;28;20935;-85
2022/04/15 04:44:30;;;;;;;0.87;0.87;;;11.30;99.90;;;;;;4999354;28;20466;-86
2022/04/15 04:46:57;;;;;;;0.90;0.70;;;11.20;99.90;;;;;;4993151;28;20471;-83
2022/04/15 04:49:24;;;;;;;0.80;0.80;;;11.10;99.90;;;;;;5026152;28;20450;-84
2022/04/15 04:51:53;;;;;;;0.40;0.20;;;11.00;99.90;;;;;;5020867;28;20530;-82
2022/04/15 04:54:20;;;;;;;1.07;0.40;;;10.90;99.90;;;;;;5005994;28;20471;-82
2022/04/15 04:56:47;;;;;;;0.43;0.40;;;10.90;99.90;;;;;;5012106;28;20462;-82
2022/04/15 04:59:14;;;;;;;0.70;0.70;;;10.90;99.90;;;;;;5009598;28;20466;-82
2022/04/15 05:01:41;;;;;;;1.30;1.23;;;10.80;99.90;;;;;;5010065;28;20462;-82
2022/04/15 05:04:08;;;;;;;1.57;1.57;;;10.90;99.90;;;;;;5016902;28;20543;-84
2022/04/15 05:06:36;;;;;;;0.83;0.83;;;10.90;99.90;;;;;;5006608;28;21095;-83
2022/04/15 05:09:05;;;;;;;1.10;1.10;;;10.80;99.90;;;;;;5008709;28;20493;-86
2022/04/15 05:11:32;;;;;;;0.47;0.43;;;10.80;99.90;;;;;;5007922;28;20470;-83
2022/04/15 05:13:59;;;;;;;0.40;0.30;;;10.80;99.90;;;;;;5008473;28;20821;-82
2022/04/15 05:16:26;;;;;;;0.60;0.60;;;10.80;99.90;;;;;;5011638;28;20505;-86
2022/04/15 05:18:53;;;;;;;1.53;0.83;;;10.80;99.90;;;;;;5007713;28;20454;-84
2022/04/15 05:21:20;;;;;;;0.87;0.87;;;10.80;99.90;;;;;;5005382;28;20985;-82
2022/04/15 05:23:47;;;;;;;0.70;0.50;;;10.80;99.90;;;;;;5005828;28;20458;-86
2022/04/15 05:26:15;;;;;;;0.60;0.50;;;10.80;99.90;;;;;;4999440;28;21540;-82
2022/04/15 05:28:43;;;;;;;0.40;0.30;;;10.90;99.90;;;;;;5005263;28;20953;-82
2022/04/15 05:31:10;;;;;;;0.60;0.60;;;10.90;99.90;;;;;;5008460;28;20470;-85
2022/04/15 05:33:37;;;;;;;1.53;0.93;;;10.90;99.90;;;;;;5000292;28;20543;-83
2022/04/15 05:36:04;;;;;;;0.47;0.47;;;10.80;99.90;;;;;;5003228;28;20584;-83
2022/04/15 05:38:31;;;;;;;0.50;0.50;;;10.80;99.90;;;;;;5004383;28;20471;-85
2022/04/15 05:40:58;;;;;;;0.57;0.30;;;10.80;99.90;;;;;;5002929;28;20564;-85
2022/04/15 05:43:26;;;;;;;0.90;0.90;;;10.80;99.90;;;;;;5006471;28;20474;-87
2022/04/15 05:45:53;;;;;;;1.13;1.13;;;10.90;99.90;;;;;;4998282;28;20614;-86
2022/04/15 05:48:20;;;;;;;1.17;0.53;;;11.00;99.90;;;;;;4994674;28;20526;-85
2022/04/15 05:50:47;;;;;;;6.50;1.03;;;11.00;99.90;;;;;;4992734;28;20466;-86
2022/04/15 05:53:14;;;;;;;2.10;2.00;;;11.00;99.90;;;;;;4993302;28;20564;-85
2022/04/15 05:55:41;;;;;;;3.03;1.20;;;11.00;99.90;;;;;;4994922;28;20546;-88
2022/04/15 05:58:10;;;;;;;0.80;0.80;;;11.00;99.90;;;;;;4992193;28;20553;-85
2022/04/15 06:00:38;;;;;;;1.37;0.50;;;11.10;99.90;;;;;;4993818;28;20505;-86
2022/04/15 06:03:07;;;;;;;0.40;0.30;;;11.00;99.90;;;;;;4990664;28;21015;-85
2022/04/15 06:05:34;;;;;;;1.60;0.83;;;11.00;99.90;;;;;;4992434;28;20469;-84
2022/04/15 06:08:01;;;;;;;0.60;0.40;;;11.00;99.90;;;;;;4995655;28;20471;-85
2022/04/15 06:10:28;;;;;;;0.30;0.23;;;11.10;99.90;;;;;;4990531;28;20482;-85
2022/04/15 06:13:04;;;;;;;0.50;0.50;;;11.10;99.90;;;;;;4991069;28;20459;-88
2022/04/15 06:15:32;;;;;;;1.53;1.43;;;11.10;99.90;;;;;;4995179;28;20506;-87
2022/04/15 06:18:01;;;;;;;1.27;1.17;;;11.20;99.90;;;;;;5001516;28;20450;-88
2022/04/15 06:20:28;;;;;;;0.53;0.53;;;11.20;99.90;;;;;;5013144;28;21057;-85
2022/04/15 06:22:56;;;;;;;1.10;1.10;;;11.20;99.90;;;;;;5006435;28;20462;-84
2022/04/15 06:25:23;;;;;;;0.97;0.83;;;11.30;99.90;;;;;;5002811;28;21010;-85
2022/04/15 06:27:50;;;;;;;1.10;0.60;;;11.30;99.90;;;;;;4993803;28;20512;-85
2022/04/15 06:30:20;;;;;;;0.53;0.53;;;11.20;99.90;;;;;;4995983;28;20482;-85
2022/04/15 06:32:47;;;;;;;2.63;2.10;;;11.20;99.90;;;;;;4992827;28;20464;-84
2022/04/15 06:35:15;;;;;;;0.90;0.90;;;11.20;99.90;;;;;;4999306;28;20484;-89
2022/04/15 06:37:42;;;;;;;0.40;0.40;;;11.20;99.90;;;;;;4991978;28;20942;-85
2022/04/15 06:40:10;;;;;;;0.60;0.60;;;11.20;99.90;;;;;;5001575;28;20900;-85
2022/04/15 06:42:37;;;;;;;0.47;0.40;;;11.30;99.90;;;;;;5005468;28;20607;-85
2022/04/15 06:45:05;;;;;;;0.40;0.30;;;11.20;99.90;;;;;;4995194;28;20470;-84
2022/04/15 06:47:32;;;;;;;1.23;0.90;;;11.10;99.90;;;;;;5001928;28;20470;-85
2022/04/15 06:49:59;;;;;;;1.80;0.93;;;11.10;99.90;;;;;;5002979;28;20529;-87
2022/04/15 06:52:28;;;;;;;0.60;0.30;;;11.20;99.90;;;;;;5000159;28;20463;-87
2022/04/15 06:54:55;;;;;;;0.40;0.30;;;11.20;99.90;;;;;;5000624;28;20528;-93
2022/04/15 06:57:22;;;;;;;0.40;0.40;;;11.20;99.90;;;;;;4996561;28;20466;-88
2022/04/15 06:59:49;;;;;;;0.60;0.60;;;11.30;99.90;;;;;;4994326;28;20491;-85
2022/04/15 07:02:16;;;;;;;2.00;1.80;;;11.20;99.90;;;;;;4992696;28;20862;-85
2022/04/15 07:04:43;;;;;;;0.40;0.40;;;11.20;99.90;;;;;;4989135;28;20507;-86
2022/04/15 07:07:10;;;;;;;1.03;0.63;;;11.30;99.90;;;;;;4995559;28;20475;-84
2022/04/15 07:09:38;;;;;;;1.50;0.87;;;11.30;99.90;;;;;;4999962;28;20533;-88
2022/04/15 07:12:07;;;;;;;0.60;0.60;;;11.30;99.90;;;;;;5005959;28;20659;-85
2022/04/15 07:14:34;;;;;;;0.40;0.40;;;11.40;99.90;;;;;;4995728;28;20589;-86
2022/04/15 07:17:01;;;;;;;1.00;0.57;;;11.40;99.90;;;;;;4996148;28;20473;-87
2022/04/15 07:19:28;;;;;;;0.57;0.57;;;11.60;99.90;;;;;;5000509;28;20467;-86
2022/04/15 07:21:55;;;;;;;0.67;0.60;;;11.70;99.90;;;;;;4993232;28;20546;-88
2022/04/15 07:24:22;;;;;;;0.40;0.40;;;11.60;99.90;;;;;;4993583;28;21976;-85
2022/04/15 07:26:50;;;;;;;2.63;1.00;;;11.60;99.90;;;;;;4993302;28;20490;-85
2022/04/15 07:29:18;;;;;;;2.67;1.30;;;11.60;99.90;;;;;;5010211;28;20527;-84
2022/04/15 07:31:45;;;;;;;0.30;0.20;;;11.60;99.90;;;;;;5000997;28;20483;-86
2022/04/15 07:34:12;;;;;;;1.60;1.53;;;11.60;99.90;;;;;;5006660;28;20904;-86
2022/04/15 07:36:53;;;;;;;0.40;0.30;;;11.60;99.90;;;;;;5004257;28;20545;-87
2022/04/15 07:39:21;;;;;;;2.10;2.00;;;11.60;99.90;;;;;;4995062;28;20474;-86
2022/04/15 07:41:48;;;;;;;0.30;0.20;;;11.60;99.90;;;;;;4997495;28;20495;-86
2022/04/15 07:44:17;;;;;;;0.93;0.90;;;11.70;99.90;;;;;;4993389;28;20466;-85
2022/04/15 07:46:46;;;;;;;1.17;0.97;;;11.60;99.90;;;;;;5007833;28;20516;-86
2022/04/15 07:49:13;;;;;;;0.60;0.50;;;11.80;99.90;;;;;;4995608;28;21161;-86
2022/04/15 07:51:41;;;;;;;0.40;0.40;;;11.80;99.90;;;;;;5003192;28;20476;-87
2022/04/15 07:54:08;;;;;;;0.70;0.70;;;11.90;99.90;;;;;;4997714;28;20613;-86
2022/04/15 07:56:36;;;;;;;1.23;0.83;;;12.30;99.90;;;;;;5004620;28;20461;-85
2022/04/15 07:59:04;;;;;;;3.07;1.60;;;12.30;99.90;;;;;;5008556;28;20515;-86
2022/04/15 08:01:33;;;;;;;0.60;0.60;;;12.50;99.90;;;;;;5004342;28;21062;-86
2022/04/15 08:04:01;;;;;;;1.70;1.60;;;12.80;99.90;;;;;;5009914;28;20483;-86
2022/04/15 08:06:29;;;;;;;1.13;1.00;;;13.00;99.90;;;;;;5009460;28;20458;-86
2022/04/15 08:08:58;;;;;;;0.67;0.67;;;13.30;99.90;;;;;;5001325;28;20892;-87
2022/04/15 08:11:26;;;;;;;3.50;3.40;;;13.20;99.90;;;;;;4993992;28;20565;-88
2022/04/15 08:13:54;;;;;;;0.37;0.30;;;13.10;99.90;;;;;;4995213;28;20481;-85
2022/04/15 08:16:21;;;;;;;1.23;1.13;;;13.30;99.90;;;;;;4990513;28;20497;-85
2022/04/15 08:18:49;;;;;;;0.47;0.47;;;13.10;99.90;;;;;;4997741;28;20484;-86
2022/04/15 08:21:17;;;;;;;1.80;1.07;;;12.90;99.90;;;;;;4995634;28;21187;-87
2022/04/15 08:23:44;;;;;;;0.87;0.87;;;12.80;99.90;;;;;;4994736;28;20470;-87
2022/04/15 08:26:11;;;;;;;0.87;0.30;;;12.70;99.90;;;;;;4998781;28;20491;-83
2022/04/15 08:28:38;;;;;;;0.40;0.33;;;12.50;99.90;;;;;;4997855;28;20472;-85
2022/04/15 08:31:06;;;;;;;1.70;1.60;;;12.50;99.90;;;;;;4993370;28;20461;-87
2022/04/15 08:33:33;;;;;;;4.50;0.90;;;12.60;99.90;;;;;;4993685;28;21349;-86
2022/04/15 08:36:01;;;;;;;0.40;0.30;;;12.70;99.90;;;;;;5008244;28;20470;-88
2022/04/15 08:38:28;;;;;;;0.80;0.80;;;13.00;99.90;;;;;;5026300;28;20472;-86
2022/04/15 08:40:58;;;;;;;3.27;0.60;;;13.10;99.90;;;;;;5017073;28;21051;-86
2022/04/15 08:43:29;;;;;;;0.97;0.60;;;13.10;99.90;;;;;;5005531;28;20476;-88
2022/04/15 08:45:57;;;;;;;1.43;1.33;;;13.40;99.90;;;;;;5007817;28;20513;-87
2022/04/15 08:48:27;;;;;;;1.27;1.27;;;13.40;99.90;;;;;;5017676;28;20445;-86
2022/04/15 08:50:54;;;;;;;1.57;1.47;;;13.30;99.90;;;;;;5006650;28;20553;-87
2022/04/15 08:53:23;;;;;;;1.40;1.40;;;13.40;99.90;;;;;;5002969;28;20474;-90
2022/04/15 08:55:50;;;;;;;0.80;0.80;;;13.30;99.90;;;;;;5022161;28;20476;-88
2022/04/15 08:58:17;;;;;;;0.40;0.40;;;13.40;99.90;;;;;;5009082;28;20477;-93
2022/04/15 09:00:44;;;;;;;0.60;0.60;;;13.60;99.90;;;;;;5008533;28;20488;-88
2022/04/15 09:03:11;;;;;;;0.50;0.50;;;13.90;99.90;;;;;;5013986;28;20858;-88
2022/04/15 09:05:38;;;;;;;1.57;1.47;;;14.20;99.90;;;;;;5005179;28;20458;-88
2022/04/15 09:08:07;;;;;;;2.13;1.97;;;14.40;99.90;;;;;;4993821;28;20466;-86
2022/04/15 09:10:36;;;;;;;4.67;1.90;;;14.30;99.90;;;;;;5001260;28;20469;-88
2022/04/15 09:13:04;;;;;;;2.23;2.13;;;14.20;99.90;;;;;;5000980;28;20461;-91
2022/04/15 09:15:32;;;;;;;2.53;2.43;;;14.40;99.90;;;;;;5003615;28;20478;-88
2022/04/15 09:18:01;;;;;;;1.20;1.20;;;14.20;99.90;;;;;;5011345;28;20787;-90
2022/04/15 09:20:32;;;;;;;0.97;0.97;;;14.00;99.90;;;;;;5002158;28;20516;-90
2022/04/15 09:23:09;;;;;;;1.43;0.67;;;14.00;99.90;;;;;;5005083;28;20543;-91
2022/04/15 09:25:39;;;;;;;1.50;1.40;;;14.00;99.90;;;;;;5006274;28;20561;-89
2022/04/15 09:28:07;;;;;;;3.00;1.30;;;14.00;99.90;;;;;;5005591;28;20454;-89
2022/04/15 09:30:35;;;;;;;0.63;0.47;;;14.20;99.90;;;;;;5008175;28;20457;-88
2022/04/15 09:33:03;;;;;;;1.27;1.17;;;14.20;99.90;;;;;;5006326;28;20469;-88
2022/04/15 09:35:31;;;;;;;0.80;0.80;;;14.20;99.90;;;;;;5016063;28;20586;-89
2022/04/15 09:38:04;;;;;;;0.73;0.73;;;14.40;99.90;;;;;;5010547;28;20546;-88
2022/04/15 09:40:35;;;;;;;2.70;1.40;;;14.50;99.90;;;;;;5011182;28;20999;-88
2022/04/15 09:43:06;;;;;;;0.90;0.77;;;14.50;99.90;;;;;;5001830;28;20463;-88
2022/04/15 09:45:35;;;;;;;4.20;1.30;;;14.60;99.90;;;;;;5009851;28;20521;-89
2022/04/15 09:48:04;;;;;;;1.23;0.87;;;14.50;99.90;;;;;;5007826;28;20469;-87
2022/04/15 09:50:34;;;;;;;2.07;1.97;;;14.50;99.90;;;;;;5009369;28;20458;-87
2022/04/15 09:53:09;;;;;;;1.03;0.93;;;14.60;99.90;;;;;;5007762;28;20465;-87
2022/04/15 09:55:39;;;;;;;1.90;1.80;;;14.70;99.90;;;;;;5020103;28;20474;-87
2022/04/15 09:58:11;;;;;;;4.90;2.17;;;14.90;99.90;;;;;;5002633;28;20835;-90
2022/04/15 10:00:48;;;;;;;2.50;2.30;;;15.30;99.90;;;;;;5004862;28;20462;-86
2022/04/15 10:03:20;;;;;;;3.40;2.00;;;15.50;99.90;;;;;;5005849;28;20461;-85
2022/04/15 10:05:47;;;;;;;1.93;1.73;;;15.60;99.90;;;;;;5011100;28;20956;-85
2022/04/15 10:08:15;;;;;;;3.93;2.33;;;15.70;99.90;;;;;;5005765;28;20470;-87
2022/04/15 10:10:42;;;;;;;1.30;1.20;;;15.70;99.90;;;;;;5000907;28;20514;-85
2022/04/15 10:13:11;;;;;;;1.53;1.37;;;15.80;99.90;;;;;;5006457;28;20470;-84
2022/04/15 10:15:38;;;;;;;1.73;1.53;;;15.90;99.90;;;;;;5011070;28;20543;-84
2022/04/15 10:18:05;;;;;;;0.80;0.80;;;16.00;99.90;;;;;;5023627;28;20513;-85
2022/04/15 10:20:33;;;;;;;0.80;0.70;;;15.90;99.90;;;;;;4997214;28;20483;-84
2022/04/15 10:23:03;;;;;;;0.97;0.97;;;16.10;99.90;;;;;;5005229;28;20484;-87
2022/04/15 10:25:32;;;;;;;1.30;0.70;;;16.10;99.90;;;;;;5006466;28;20453;-86
2022/04/15 10:28:06;;;;;;;1.67;1.43;;;16.30;99.90;;;;;;5014467;28;20516;-84
2022/04/15 10:30:34;;;;;;;0.93;0.93;;;16.40;99.90;;;;;;5011515;28;20467;-83
2022/04/15 10:33:01;;;;;;;0.93;0.83;;;16.40;99.90;;;;;;5008698;28;20505;-84
2022/04/15 10:35:30;;;;;;;4.53;0.80;;;16.30;99.90;;;;;;5008056;28;21143;-84
2022/04/15 10:38:00;;;;;;;1.50;1.13;;;16.20;99.90;;;;;;4996777;28;20458;-85
2022/04/15 10:40:30;;;;;;;1.33;1.23;;;16.20;99.90;;;;;;5013344;28;20828;-84
2022/04/15 10:43:05;;;;;;;0.60;0.60;;;16.40;99.90;;;;;;5000330;28;20490;-85
2022/04/15 10:45:38;;;;;;;1.67;1.57;;;16.50;99.90;;;;;;5007515;28;20521;-88
2022/04/15 10:48:06;;;;;;;0.83;0.73;;;16.90;99.90;;;;;;4990938;28;20468;-86
2022/04/15 10:50:35;;;;;;;0.83;0.63;;;17.10;99.90;;;;;;4991051;28;20458;-85
2022/04/15 10:53:31;;;;;;;1.90;1.17;;;17.10;99.90;;;;;;4990593;28;20577;-86
2022/04/15 10:56:09;;;;;;;1.53;1.50;;;17.40;99.90;;;;;;4990870;28;20953;-83
2022/04/15 11:01:53;;;;;;;0.77;0.77;;;17.20;99.90;;;;;;4998604;28;20532;-83
2022/04/15 11:04:24;;;;;;;1.13;0.70;;;17.00;99.90;;;;;;4990556;28;20469;-84
2022/04/15 11:06:52;;;;;;;0.53;0.53;;;16.90;99.90;;;;;;4994514;28;20462;-85
2022/04/15 11:09:23;;;;;;;1.23;0.87;;;17.00;99.90;;;;;;4992147;28;20467;-85
2022/04/15 11:11:54;;;;;;;0.80;0.60;;;17.30;99.90;;;;;;4993417;28;20481;-85
2022/04/15 11:14:34;;;;;;;1.53;0.93;;;17.50;99.90;;;;;;4992336;28;20462;-83
2022/04/15 11:17:03;;;;;;;0.70;0.70;;;17.50;99.90;;;;;;4990389;28;20554;-83
2022/04/15 11:19:31;;;;;;;0.60;0.60;;;17.80;99.90;;;;;;4990505;28;20534;-84
2022/04/15 11:22:01;;;;;;;0.40;0.40;;;17.90;99.90;;;;;;4991356;28;21229;-84
2022/04/15 11:24:30;;;;;;;0.73;0.40;;;18.00;99.90;;;;;;4990400;28;20561;-83
2022/04/15 11:27:00;;;;;;;0.77;0.70;;;18.00;99.90;;;;;;4991892;28;20518;-80
2022/04/15 11:29:31;;;;;;;0.60;0.50;;;18.10;99.90;;;;;;4993553;28;20482;-79
2022/04/15 11:31:59;;;;;;;1.07;1.07;;;18.30;99.90;;;;;;4992187;28;20480;-85
2022/04/15 11:34:28;;;;;;;1.10;1.07;;;18.50;99.90;;;;;;4992137;28;20465;-85
2022/04/15 11:36:56;;;;;;;0.70;0.70;;;18.30;99.90;;;;;;4990523;28;20462;-85
2022/04/15 11:39:25;;;;;;;0.60;0.60;;;18.30;99.90;;;;;;4991497;28;20467;-86
2022/04/15 11:41:54;;;;;;;2.07;0.73;;;18.30;99.90;;;;;;4990058;28;21051;-85
2022/04/15 11:44:23;;;;;;;0.30;0.20;;;18.50;99.90;;;;;;4994241;28;20470;-88
2022/04/15 11:46:51;;;;;;;0.93;0.37;;;18.30;99.90;;;;;;4998795;28;20626;-85
2022/04/15 11:49:20;;;;;;;0.43;0.43;;;18.30;97.60;;;;;;4993431;28;20497;-85
2022/04/15 11:51:50;;;;;;;0.50;0.50;;;18.30;98.10;;;;;;4999305;28;20474;-88
2022/04/15 11:54:21;;;;;;;1.53;0.40;;;18.40;99.90;;;;;;4991311;28;20455;-85
2022/04/15 11:56:53;;;;;;;2.10;0.40;;;18.40;99.10;;;;;;4993238;28;20486;-86
2022/04/15 11:59:20;;;;;;;0.77;0.47;;;18.70;99.40;;;;;;4996375;28;20458;-85
2022/04/15 12:01:47;;;;;;;0.60;0.40;;;18.60;95.00;;;;;;4989381;28;20490;-85
2022/04/15 12:04:14;;;;;;;0.43;0.30;;;18.70;96.20;;;;;;4994327;28;21240;-85
2022/04/15 12:06:41;;;;;;;0.40;0.30;;;18.90;94.90;;;;;;4990526;28;20478;-85
2022/04/15 12:09:12;;;;;;;0.40;0.30;;;18.90;94.40;;;;;;4994078;28;20459;-87
2022/04/15 12:11:40;;;;;;;0.90;0.47;;;18.80;95.40;;;;;;4989520;28;20464;-87
2022/04/15 12:14:08;;;;;;;2.30;0.50;;;18.90;94.80;;;;;;4990660;28;20459;-88
2022/04/15 12:16:39;;;;;;;0.50;0.50;;;19.20;96.30;;;;;;4992257;28;20933;-87
2022/04/15 12:19:07;;;;;;;0.50;0.50;;;19.10;93.90;;;;;;5008080;28;20455;-90
2022/04/15 12:21:35;;;;;;;1.23;0.80;;;19.00;96.10;;;;;;5012997;28;20490;-85
2022/04/15 12:24:07;;;;;;;0.97;0.87;;;18.60;92.40;;;;;;5012618;28;20444;-84
2022/04/15 12:26:45;;;;;;;0.67;0.67;;;18.70;92.40;;;;;;5017900;28;20472;-85
2022/04/15 12:32:19;;;;;;;0.70;0.60;;;19.30;93.80;;;;;;4999045;28;20830;-86
2022/04/15 12:34:47;;;;;;;0.50;0.50;;;19.20;91.70;;;;;;4995015;28;20477;-88
2022/04/15 12:37:34;;;;;;;0.40;0.30;;;18.80;92.00;;;;;;5002153;28;20876;-87
2022/04/15 12:40:07;;;;;;;1.00;0.60;;;18.60;91.70;;;;;;5000628;28;20474;-87
2022/04/15 12:42:37;;;;;;;0.70;0.70;;;18.60;90.50;;;;;;4997756;28;21089;-87
2022/04/15 12:45:09;;;;;;;1.67;1.30;;;18.70;91.90;;;;;;5000621;28;20474;-87
2022/04/15 12:47:36;;;;;;;0.40;0.40;;;18.70;90.50;;;;;;5003019;28;20462;-87
2022/04/15 12:50:25;;;;;;;1.33;0.40;;;18.80;91.60;;;;;;5005106;28;20469;-87
2022/04/15 12:52:53;;;;;;;0.40;0.30;;;19.30;92.30;;;;;;4999360;28;20475;-86
2022/04/15 12:55:29;;;;;;;0.40;0.40;;;19.30;90.40;;;;;;4988837;28;20478;-89
2022/04/15 12:57:58;;;;;;;0.40;0.30;;;19.00;90.10;;;;;;4989828;28;20562;-87
2022/04/15 13:00:25;;;;;;;0.30;0.20;;;19.00;89.80;;;;;;4988395;28;20470;-89